Time;durP1;ratioP1;P1;durP2;ratioP2;P2;SDS_P1;SDS_P2;PMS_P1;PMS_P2;Temp;Humidity;BMP_temperature;BMP_pressure;BME280_temperature;BME280_humidity;BME280_pressure;Samples;Min_cycle;Max_cycle;Signal;HPM_P1;HPM_P2
2023/04/16 00:01:38;;;;;;;6.07;2.85;;;19.80;59.00;;;;;;5100543;28;20086;-61
2023/04/16 00:04:04;;;;;;;5.72;2.80;;;19.80;58.90;;;;;;5111788;28;20398;-61
2023/04/16 00:06:30;;;;;;;6.05;3.00;;;19.70;58.90;;;;;;5111375;28;20074;-61
2023/04/16 00:08:56;;;;;;;6.13;3.20;;;19.80;58.90;;;;;;5112548;28;20074;-61
2023/04/16 00:11:21;;;;;;;8.95;3.38;;;19.70;58.80;;;;;;5112212;28;20364;-61
2023/04/16 00:13:47;;;;;;;7.97;3.70;;;19.70;58.80;;;;;;5113180;28;20073;-61
2023/04/16 00:16:12;;;;;;;7.25;3.22;;;19.70;58.80;;;;;;5112293;28;20035;-61
2023/04/16 00:18:38;;;;;;;6.43;3.10;;;19.70;58.80;;;;;;5111921;28;20051;-61
2023/04/16 00:21:04;;;;;;;6.65;3.28;;;19.70;58.80;;;;;;5112400;28;20480;-61
2023/04/16 00:23:29;;;;;;;6.78;3.60;;;19.70;58.80;;;;;;5112632;28;20440;-61
2023/04/16 00:25:58;;;;;;;6.70;3.13;;;19.70;58.80;;;;;;5111683;28;20051;-62
2023/04/16 00:28:24;;;;;;;5.80;2.90;;;19.70;58.80;;;;;;5112795;28;20070;-61
2023/04/16 00:30:50;;;;;;;8.30;3.55;;;19.70;58.80;;;;;;5112502;28;20059;-61
2023/04/16 00:33:16;;;;;;;5.30;2.92;;;19.70;58.80;;;;;;5111459;28;20036;-61
2023/04/16 00:35:43;;;;;;;6.75;3.30;;;19.70;58.80;;;;;;5112762;28;20043;-61
2023/04/16 00:38:09;;;;;;;7.45;3.55;;;19.70;58.80;;;;;;5074806;28;20044;-61
2023/04/16 00:40:35;;;;;;;7.22;3.38;;;19.70;58.80;;;;;;5091495;28;20044;-61
2023/04/16 00:43:00;;;;;;;6.55;3.55;;;19.70;58.80;;;;;;5103054;28;20039;-61
2023/04/16 00:45:26;;;;;;;6.38;3.10;;;19.70;58.80;;;;;;5110535;28;20072;-62
2023/04/16 00:47:51;;;;;;;7.35;3.58;;;19.60;58.80;;;;;;5077556;28;20130;-61
2023/04/16 00:50:17;;;;;;;6.55;3.00;;;19.70;58.70;;;;;;5091804;28;20484;-61
2023/04/16 00:52:45;;;;;;;7.47;3.50;;;19.70;58.70;;;;;;5105405;28;20047;-61
2023/04/16 00:55:12;;;;;;;8.52;3.65;;;19.60;58.70;;;;;;5112574;28;20051;-61
2023/04/16 00:57:38;;;;;;;7.00;3.33;;;19.60;58.80;;;;;;5111217;28;20111;-61
2023/04/16 01:00:04;;;;;;;7.43;3.90;;;19.60;58.70;;;;;;5111334;28;20039;-61
2023/04/16 01:02:30;;;;;;;5.90;3.08;;;19.60;58.80;;;;;;5111510;28;20070;-61
2023/04/16 01:04:55;;;;;;;7.03;3.45;;;19.60;58.80;;;;;;5111997;28;20130;-61
2023/04/16 01:07:21;;;;;;;6.90;3.67;;;19.60;58.70;;;;;;5113583;28;20086;-61
2023/04/16 01:09:47;;;;;;;8.07;3.30;;;19.60;58.70;;;;;;5116647;28;20048;-61
2023/04/16 01:12:12;;;;;;;7.38;3.78;;;19.60;58.70;;;;;;5115645;28;20051;-61
2023/04/16 01:14:38;;;;;;;7.50;3.70;;;19.60;58.70;;;;;;5115512;28;20062;-61
2023/04/16 01:17:03;;;;;;;6.38;3.60;;;19.60;58.70;;;;;;5114769;28;20482;-61
2023/04/16 01:19:35;;;;;;;7.25;3.92;;;19.60;58.70;;;;;;5116183;28;20469;-60
2023/04/16 01:22:00;;;;;;;6.55;3.60;;;19.60;58.70;;;;;;5113582;28;20052;-61
2023/04/16 01:24:26;;;;;;;6.68;4.03;;;19.60;58.70;;;;;;5116321;28;20047;-61
2023/04/16 01:26:52;;;;;;;6.70;3.83;;;19.50;58.60;;;;;;5116034;28;20051;-61
2023/04/16 01:29:17;;;;;;;7.68;4.15;;;19.50;58.60;;;;;;5115151;28;20156;-61
2023/04/16 01:31:43;;;;;;;7.30;4.03;;;19.50;58.60;;;;;;5115949;28;20409;-61
2023/04/16 01:34:08;;;;;;;7.47;4.15;;;19.50;58.60;;;;;;5114474;28;20036;-61
2023/04/16 01:36:34;;;;;;;7.60;3.97;;;19.50;58.60;;;;;;5114765;28;20052;-61
2023/04/16 01:38:59;;;;;;;7.43;3.88;;;19.50;58.70;;;;;;5112659;28;20138;-61
2023/04/16 01:41:25;;;;;;;6.72;3.70;;;19.50;58.70;;;;;;5095765;28;20040;-61
2023/04/16 01:43:50;;;;;;;8.88;4.57;;;19.50;58.70;;;;;;5094638;28;20040;-61
2023/04/16 01:46:19;;;;;;;5.65;3.42;;;19.50;58.70;;;;;;5095414;28;20121;-61
2023/04/16 01:48:46;;;;;;;8.00;3.88;;;19.50;58.70;;;;;;5093134;28;20518;-61
2023/04/16 01:51:11;;;;;;;7.45;3.90;;;19.50;59.40;;;;;;5095161;28;20101;-61
2023/04/16 01:53:37;;;;;;;8.43;3.88;;;19.50;58.60;;;;;;5113172;28;20436;-61
2023/04/16 01:56:03;;;;;;;5.05;3.47;;;19.50;58.70;;;;;;5114771;28;20034;-61
2023/04/16 01:58:29;;;;;;;7.63;3.90;;;19.40;58.60;;;;;;5115319;28;20483;-61
2023/04/16 02:00:54;;;;;;;7.10;4.07;;;19.40;58.60;;;;;;5115463;28;20039;-61
2023/04/16 02:03:23;;;;;;;5.85;4.00;;;19.40;58.60;;;;;;5113952;28;20398;-61
2023/04/16 02:05:48;;;;;;;8.07;4.20;;;19.40;58.60;;;;;;5115122;28;20047;-61
2023/04/16 02:08:14;;;;;;;8.65;4.43;;;19.40;58.50;;;;;;5114698;28;20062;-61
2023/04/16 02:10:39;;;;;;;7.75;4.13;;;19.40;58.60;;;;;;5114508;28;20051;-61
2023/04/16 02:13:05;;;;;;;6.97;4.40;;;19.40;58.60;;;;;;5114641;28;20076;-61
2023/04/16 02:15:30;;;;;;;6.90;3.75;;;19.40;58.60;;;;;;5115450;28;20122;-61
2023/04/16 02:17:56;;;;;;;6.70;4.18;;;19.40;58.60;;;;;;5112148;28;20131;-61
2023/04/16 02:20:22;;;;;;;7.10;4.20;;;19.40;58.60;;;;;;5114781;28;20100;-61
2023/04/16 02:22:47;;;;;;;6.53;3.83;;;19.40;58.50;;;;;;5114614;28;20083;-61
2023/04/16 02:25:13;;;;;;;8.20;4.28;;;19.40;58.50;;;;;;5112751;28;20071;-61
2023/04/16 02:27:39;;;;;;;8.15;4.38;;;19.40;58.60;;;;;;5113236;28;20043;-61
2023/04/16 02:30:05;;;;;;;6.97;4.20;;;19.30;58.50;;;;;;5101316;28;20036;-61
2023/04/16 02:32:30;;;;;;;6.07;3.90;;;19.40;58.60;;;;;;5093322;28;20539;-61
2023/04/16 02:34:56;;;;;;;7.78;4.07;;;19.30;58.50;;;;;;5097193;28;20127;-61
2023/04/16 02:37:22;;;;;;;6.82;4.07;;;19.30;58.50;;;;;;5094390;28;20067;-61
2023/04/16 02:39:48;;;;;;;8.70;4.53;;;19.30;58.50;;;;;;5092844;28;20040;-61
2023/04/16 02:42:15;;;;;;;7.28;4.45;;;19.30;58.50;;;;;;5094066;28;20079;-61
2023/04/16 02:44:41;;;;;;;7.97;4.15;;;19.30;58.60;;;;;;5093071;28;20052;-61
2023/04/16 02:47:06;;;;;;;8.07;4.20;;;19.30;58.50;;;;;;5102537;28;20048;-61
2023/04/16 02:49:32;;;;;;;6.13;3.72;;;19.30;58.60;;;;;;5114712;28;20051;-61
2023/04/16 02:51:58;;;;;;;8.48;3.90;;;19.30;58.60;;;;;;5113474;28;20042;-62
2023/04/16 02:54:23;;;;;;;6.95;3.88;;;19.30;58.60;;;;;;5113373;28;20043;-61
2023/04/16 02:56:49;;;;;;;7.35;4.13;;;19.30;58.60;;;;;;5113137;28;20368;-61
2023/04/16 02:59:14;;;;;;;7.53;4.05;;;19.30;58.60;;;;;;5113527;28;20040;-61
2023/04/16 03:01:40;;;;;;;6.93;4.18;;;19.30;58.60;;;;;;5114256;28;20465;-61
2023/04/16 03:04:06;;;;;;;6.32;3.67;;;19.30;58.60;;;;;;5114296;28;20040;-61
2023/04/16 03:06:31;;;;;;;6.85;4.18;;;19.30;58.60;;;;;;5113313;28;20046;-61
2023/04/16 03:08:57;;;;;;;8.35;4.43;;;19.30;58.60;;;;;;5113836;28;20047;-61
2023/04/16 03:11:22;;;;;;;6.55;3.67;;;19.30;58.60;;;;;;5114126;28;20502;-62
2023/04/16 03:13:48;;;;;;;7.70;4.45;;;19.30;58.60;;;;;;5113492;28;20085;-61
2023/04/16 03:16:14;;;;;;;8.13;4.60;;;19.30;58.60;;;;;;5113230;28;20043;-61
2023/04/16 03:18:39;;;;;;;6.75;4.00;;;19.30;58.70;;;;;;5113707;28;20040;-61
2023/04/16 03:21:05;;;;;;;7.25;4.03;;;19.40;58.70;;;;;;5111417;28;20043;-61
2023/04/16 03:23:30;;;;;;;5.63;3.95;;;19.40;59.40;;;;;;5113704;28;20055;-61
2023/04/16 03:25:56;;;;;;;7.88;3.70;;;19.40;58.70;;;;;;5113578;28;20052;-61
2023/04/16 03:28:22;;;;;;;7.75;3.78;;;19.40;58.70;;;;;;5112827;28;20046;-62
2023/04/16 03:30:53;;;;;;;8.95;4.75;;;19.40;58.70;;;;;;5111380;28;20042;-61
2023/04/16 03:33:19;;;;;;;7.13;4.20;;;19.40;58.70;;;;;;5113398;28;20039;-61
2023/04/16 03:35:45;;;;;;;6.10;3.53;;;19.40;58.70;;;;;;5113075;28;20043;-61
2023/04/16 03:38:11;;;;;;;6.00;4.03;;;19.40;58.70;;;;;;5113278;28;20040;-61
2023/04/16 03:40:37;;;;;;;6.55;4.10;;;19.40;58.70;;;;;;5113715;27;20051;-61
2023/04/16 03:43:03;;;;;;;5.85;3.67;;;19.40;58.80;;;;;;5097801;28;20048;-61
2023/04/16 03:45:28;;;;;;;6.40;3.60;;;19.50;58.80;;;;;;5093215;28;20069;-61
2023/04/16 03:47:54;;;;;;;7.38;3.97;;;19.50;58.80;;;;;;5093366;28;20127;-61
2023/04/16 03:50:19;;;;;;;7.07;4.30;;;19.50;58.80;;;;;;5090828;28;20071;-61
2023/04/16 03:52:46;;;;;;;6.05;3.88;;;19.50;58.70;;;;;;5093237;28;20075;-61
2023/04/16 03:55:12;;;;;;;6.93;4.35;;;19.60;58.80;;;;;;5092013;28;20506;-60
2023/04/16 03:57:38;;;;;;;7.20;4.03;;;19.60;58.80;;;;;;5092800;28;20404;-61
2023/04/16 04:00:04;;;;;;;6.15;4.03;;;19.60;58.70;;;;;;5092635;28;20613;-61
2023/04/16 04:02:30;;;;;;;6.15;4.10;;;19.60;58.80;;;;;;5091966;28;20058;-60
2023/04/16 04:04:55;;;;;;;7.47;4.22;;;19.60;58.70;;;;;;5091638;28;20462;-61
2023/04/16 04:07:21;;;;;;;6.70;4.00;;;19.60;58.80;;;;;;5092226;28;20555;-61
2023/04/16 04:09:46;;;;;;;6.25;4.05;;;19.60;58.80;;;;;;5090250;28;20562;-61
2023/04/16 04:12:12;;;;;;;6.25;3.97;;;19.60;58.80;;;;;;5092087;28;20487;-60
2023/04/16 04:14:38;;;;;;;7.25;4.13;;;19.60;58.80;;;;;;5092600;28;20051;-61
2023/04/16 04:17:05;;;;;;;6.78;3.78;;;19.60;58.70;;;;;;5096151;28;20036;-61
2023/04/16 04:19:30;;;;;;;6.18;3.90;;;19.70;58.80;;;;;;5092856;28;20063;-60
2023/04/16 04:21:56;;;;;;;6.50;4.40;;;19.70;58.70;;;;;;5092232;28;20078;-61
2023/04/16 04:24:21;;;;;;;6.90;4.20;;;19.70;58.70;;;;;;5091995;28;20074;-61
2023/04/16 04:26:47;;;;;;;6.93;3.75;;;19.70;58.70;;;;;;5092857;28;20484;-61
2023/04/16 04:29:13;;;;;;;7.22;4.30;;;19.70;58.70;;;;;;5091652;28;20051;-60
2023/04/16 04:31:38;;;;;;;6.30;4.15;;;19.70;58.70;;;;;;5090272;28;20050;-60
2023/04/16 04:34:04;;;;;;;6.55;4.00;;;19.70;58.70;;;;;;5111698;28;20050;-61
2023/04/16 04:36:29;;;;;;;5.75;4.15;;;19.70;58.70;;;;;;5112765;28;20031;-60
2023/04/16 04:38:55;;;;;;;5.97;4.22;;;19.70;58.70;;;;;;5091854;28;20048;-60
2023/04/16 04:41:20;;;;;;;6.38;4.15;;;19.80;58.70;;;;;;5092139;28;20044;-61
2023/04/16 04:43:46;;;;;;;5.75;3.97;;;19.70;58.60;;;;;;5092381;28;20044;-60
2023/04/16 04:46:11;;;;;;;6.15;3.78;;;19.70;58.60;;;;;;5091482;28;20046;-61
2023/04/16 04:48:37;;;;;;;6.50;3.65;;;19.70;58.70;;;;;;5092339;28;20411;-61
2023/04/16 04:51:03;;;;;;;5.28;3.78;;;19.70;58.60;;;;;;5092103;28;20048;-61
2023/04/16 04:53:28;;;;;;;5.90;3.75;;;19.80;58.70;;;;;;5091720;28;20039;-60
2023/04/16 04:55:54;;;;;;;6.40;4.03;;;19.80;58.70;;;;;;5092469;28;20048;-61
2023/04/16 04:58:20;;;;;;;6.50;4.10;;;19.80;58.70;;;;;;5092090;28;20051;-61
2023/04/16 05:00:45;;;;;;;7.03;3.97;;;19.80;58.70;;;;;;5091499;28;20149;-60
2023/04/16 05:03:11;;;;;;;6.13;3.95;;;19.80;58.70;;;;;;5091770;28;20491;-60
2023/04/16 05:05:40;;;;;;;6.43;4.18;;;19.80;58.60;;;;;;5090052;28;20058;-60
2023/04/16 05:08:06;;;;;;;6.35;4.30;;;19.80;58.70;;;;;;5101568;28;20043;-61
2023/04/16 05:10:31;;;;;;;5.97;4.03;;;19.80;58.70;;;;;;5112582;28;20051;-61
2023/04/16 05:12:57;;;;;;;6.07;4.05;;;19.80;58.60;;;;;;5110822;28;20031;-61
2023/04/16 05:15:22;;;;;;;5.78;4.28;;;19.80;58.60;;;;;;5112539;28;20039;-61
2023/04/16 05:17:48;;;;;;;6.05;4.25;;;19.80;58.60;;;;;;5112104;28;20042;-61
2023/04/16 05:20:13;;;;;;;6.68;4.32;;;19.80;58.60;;;;;;5109959;28;20035;-61
2023/04/16 05:22:39;;;;;;;6.97;4.72;;;19.90;58.70;;;;;;5110595;28;20052;-61
2023/04/16 05:25:05;;;;;;;6.47;4.03;;;19.90;58.70;;;;;;5112145;28;20044;-61
2023/04/16 05:27:30;;;;;;;7.38;4.00;;;19.90;58.60;;;;;;5110903;28;20500;-61
2023/04/16 05:29:56;;;;;;;6.20;4.07;;;19.90;58.60;;;;;;5112039;28;20051;-61
2023/04/16 05:32:24;;;;;;;6.50;3.95;;;19.90;58.60;;;;;;5111730;28;20040;-61
2023/04/16 05:34:50;;;;;;;6.00;3.85;;;19.90;58.60;;;;;;5111509;28;20043;-61
2023/04/16 05:37:15;;;;;;;6.03;3.80;;;19.90;58.60;;;;;;5110640;28;20073;-61
2023/04/16 05:39:41;;;;;;;5.65;3.90;;;19.90;58.60;;;;;;5112055;28;20046;-61
2023/04/16 05:42:06;;;;;;;5.82;3.85;;;19.90;58.60;;;;;;5110289;28;20123;-61
2023/04/16 05:44:32;;;;;;;6.22;4.10;;;19.90;58.60;;;;;;5112268;28;20150;-61
2023/04/16 05:46:58;;;;;;;6.28;4.03;;;19.90;58.60;;;;;;5111996;28;20036;-61
2023/04/16 05:49:23;;;;;;;6.07;4.07;;;19.90;58.60;;;;;;5111146;28;20123;-61
2023/04/16 05:51:52;;;;;;;5.80;4.30;;;19.90;58.60;;;;;;5112291;28;20043;-60
2023/04/16 05:54:17;;;;;;;6.40;4.68;;;19.90;58.50;;;;;;5112877;28;20183;-66
2023/04/16 05:56:43;;;;;;;5.78;4.07;;;19.90;58.50;;;;;;5114632;28;20075;-60
2023/04/16 05:59:09;;;;;;;8.95;4.68;;;19.90;58.60;;;;;;5115083;28;20039;-61
2023/04/16 06:01:34;;;;;;;6.03;3.95;;;19.90;58.50;;;;;;5115454;28;20406;-61
2023/04/16 06:04:00;;;;;;;8.88;4.90;;;19.90;58.50;;;;;;5114241;28;20039;-60
2023/04/16 06:06:26;;;;;;;7.72;4.50;;;20.00;58.60;;;;;;5114216;28;20036;-61
2023/04/16 06:08:52;;;;;;;6.97;4.18;;;20.00;58.60;;;;;;5114329;28;20372;-61
2023/04/16 06:11:17;;;;;;;9.18;4.32;;;20.00;58.60;;;;;;5114666;28;20535;-61
2023/04/16 06:13:43;;;;;;;6.60;4.28;;;20.00;58.60;;;;;;5102324;28;20039;-61
2023/04/16 06:16:09;;;;;;;8.20;4.25;;;20.00;58.60;;;;;;5091923;28;20155;-61
2023/04/16 06:18:34;;;;;;;9.23;4.28;;;20.00;58.60;;;;;;5093306;28;20048;-61
2023/04/16 06:21:00;;;;;;;6.15;4.38;;;20.00;58.70;;;;;;5094692;28;20076;-61
2023/04/16 06:23:25;;;;;;;8.43;4.50;;;20.00;58.70;;;;;;5093783;28;20059;-61
2023/04/16 06:25:51;;;;;;;8.10;4.93;;;20.00;58.70;;;;;;5093389;28;20055;-61
2023/04/16 06:28:16;;;;;;;7.15;4.40;;;20.10;58.80;;;;;;5102305;28;20481;-59
2023/04/16 06:30:42;;;;;;;8.80;4.72;;;20.10;58.90;;;;;;5114058;28;20043;-60
2023/04/16 06:33:08;;;;;;;6.80;3.97;;;20.10;59.00;;;;;;5114578;28;20036;-60
2023/04/16 06:35:33;;;;;;;7.25;4.07;;;20.10;59.10;;;;;;5115180;28;20044;-60
2023/04/16 06:37:59;;;;;;;8.82;4.30;;;20.10;59.00;;;;;;5111999;28;20502;-61
2023/04/16 06:40:24;;;;;;;7.93;4.65;;;20.10;59.00;;;;;;5094720;28;20435;-59
2023/04/16 06:42:50;;;;;;;8.88;4.18;;;20.10;59.20;;;;;;5097783;28;20044;-60
2023/04/16 06:45:16;;;;;;;6.68;4.38;;;20.10;59.30;;;;;;5092940;28;20051;-60
2023/04/16 06:47:41;;;;;;;8.88;4.30;;;20.10;59.40;;;;;;5093839;28;20093;-60
2023/04/16 06:50:07;;;;;;;6.85;4.47;;;20.10;59.40;;;;;;5093349;28;20060;-60
2023/04/16 06:52:32;;;;;;;7.05;4.63;;;20.20;59.50;;;;;;5093037;28;20491;-60
2023/04/16 06:54:58;;;;;;;6.40;4.43;;;20.20;59.60;;;;;;5092962;28;20579;-60
2023/04/16 06:57:24;;;;;;;8.15;4.40;;;20.20;59.60;;;;;;5093022;28;20063;-60
2023/04/16 06:59:49;;;;;;;8.63;4.68;;;20.20;59.70;;;;;;5092998;28;20058;-60
2023/04/16 07:02:15;;;;;;;7.60;4.47;;;20.20;59.80;;;;;;5092857;28;20039;-60
2023/04/16 07:04:40;;;;;;;6.30;4.20;;;20.20;59.90;;;;;;5093112;28;20491;-60
2023/04/16 07:07:06;;;;;;;8.95;5.00;;;20.20;59.90;;;;;;5092328;28;20048;-60
2023/04/16 07:09:31;;;;;;;7.80;4.43;;;20.20;59.90;;;;;;5091904;28;20507;-60
2023/04/16 07:11:57;;;;;;;9.05;4.70;;;20.20;60.00;;;;;;5093317;28;20040;-60
2023/04/16 07:14:23;;;;;;;8.45;5.00;;;20.20;60.00;;;;;;5091750;28;20416;-60
2023/04/16 07:16:48;;;;;;;7.60;4.70;;;20.30;60.00;;;;;;5093537;28;20398;-60
2023/04/16 07:19:14;;;;;;;7.63;4.90;;;20.30;60.10;;;;;;5092192;28;20036;-60
2023/04/16 07:21:42;;;;;;;6.30;4.57;;;20.30;60.10;;;;;;5093448;28;20058;-60
2023/04/16 07:24:08;;;;;;;7.18;4.78;;;20.30;60.20;;;;;;5093388;28;20048;-60
2023/04/16 07:26:34;;;;;;;8.73;4.60;;;20.30;60.30;;;;;;5092926;28;20043;-60
2023/04/16 07:29:00;;;;;;;6.88;4.80;;;20.30;60.30;;;;;;5092975;28;20040;-60
2023/04/16 07:31:25;;;;;;;7.20;4.70;;;20.30;60.30;;;;;;5093421;28;20430;-60
2023/04/16 07:33:51;;;;;;;6.35;4.82;;;20.30;60.40;;;;;;5100073;28;20047;-60
2023/04/16 07:36:17;;;;;;;6.88;4.60;;;20.30;60.40;;;;;;5113310;28;20039;-60
2023/04/16 07:38:42;;;;;;;6.82;4.70;;;20.30;60.40;;;;;;5111929;28;20130;-60
2023/04/16 07:41:08;;;;;;;7.28;4.43;;;20.30;60.50;;;;;;5112702;28;20070;-60
2023/04/16 07:43:33;;;;;;;6.93;4.75;;;20.30;60.50;;;;;;5111804;28;20042;-60
2023/04/16 07:45:59;;;;;;;6.70;4.78;;;20.30;60.50;;;;;;5113425;28;20040;-61
2023/04/16 07:48:24;;;;;;;7.28;4.40;;;20.30;60.60;;;;;;5090794;28;20044;-61
2023/04/16 07:50:50;;;;;;;7.40;4.88;;;20.30;60.50;;;;;;5092919;28;20565;-61
2023/04/16 07:53:15;;;;;;;7.03;4.70;;;20.30;60.30;;;;;;5090777;28;20032;-61
2023/04/16 07:55:41;;;;;;;6.57;4.40;;;20.30;60.30;;;;;;5091932;28;20094;-62
2023/04/16 07:58:08;;;;;;;8.43;4.63;;;20.30;60.30;;;;;;5091785;28;20036;-61
2023/04/16 08:00:34;;;;;;;8.55;4.90;;;20.30;60.30;;;;;;5092735;28;20082;-62
2023/04/16 08:02:59;;;;;;;7.05;4.72;;;20.30;60.20;;;;;;5091506;28;20043;-62
2023/04/16 08:05:26;;;;;;;7.45;4.75;;;20.30;60.20;;;;;;5092702;28;20032;-62
2023/04/16 08:07:51;;;;;;;6.43;4.70;;;20.30;60.20;;;;;;5091617;28;20165;-61
2023/04/16 08:10:17;;;;;;;10.50;4.50;;;20.30;60.10;;;;;;5091809;28;20131;-61
2023/04/16 08:12:42;;;;;;;7.35;4.50;;;20.30;60.10;;;;;;5092732;28;20036;-61
2023/04/16 08:15:08;;;;;;;6.80;4.28;;;20.30;60.10;;;;;;5074308;28;20051;-61
2023/04/16 08:17:34;;;;;;;6.65;4.60;;;20.30;60.00;;;;;;5091524;28;20036;-61
2023/04/16 08:20:00;;;;;;;5.97;4.40;;;20.30;60.00;;;;;;5092512;28;20043;-61
2023/04/16 08:22:26;;;;;;;6.47;4.13;;;20.30;60.00;;;;;;5099191;28;20058;-61
2023/04/16 08:24:51;;;;;;;6.53;4.60;;;20.30;59.90;;;;;;5112447;28;20043;-61
2023/04/16 08:27:17;;;;;;;6.32;4.43;;;20.30;60.00;;;;;;5112629;28;20040;-62
2023/04/16 08:29:42;;;;;;;7.88;4.70;;;20.30;59.90;;;;;;5111987;28;20127;-61
2023/04/16 08:32:11;;;;;;;6.07;4.43;;;20.30;59.90;;;;;;5112473;28;20386;-59
2023/04/16 08:34:36;;;;;;;6.90;4.55;;;20.30;59.90;;;;;;5112848;28;20112;-61
2023/04/16 08:37:02;;;;;;;7.70;4.55;;;20.30;59.80;;;;;;5110089;28;20420;-66
2023/04/16 08:39:27;;;;;;;12.45;5.10;;;20.30;59.90;;;;;;5113005;28;20044;-59
2023/04/16 08:41:53;;;;;;;9.45;5.07;;;20.30;60.00;;;;;;5111317;28;20125;-61
2023/04/16 08:44:20;;;;;;;14.27;5.93;;;20.30;60.00;;;;;;5110046;28;20069;-61
2023/04/16 08:46:46;;;;;;;14.02;6.13;;;20.40;60.10;;;;;;5111180;28;20122;-73
2023/04/16 08:49:16;;;;;;;12.05;6.38;;;20.40;60.10;;;;;;5096133;28;20123;-72
2023/04/16 08:51:42;;;;;;;19.90;7.07;;;20.40;60.20;;;;;;5089490;28;20051;-73
2023/04/16 08:54:08;;;;;;;14.20;6.57;;;20.40;60.20;;;;;;5090342;28;20437;-72
2023/04/16 08:56:35;;;;;;;15.77;6.68;;;20.40;60.20;;;;;;5073470;28;20070;-72
2023/04/16 08:59:04;;;;;;;14.73;7.05;;;20.40;60.30;;;;;;5090707;28;20102;-73
2023/04/16 09:01:30;;;;;;;14.70;6.47;;;20.40;60.30;;;;;;5090423;28;20119;-74
2023/04/16 09:03:55;;;;;;;16.73;7.22;;;20.40;60.40;;;;;;5089934;28;20112;-73
2023/04/16 09:06:21;;;;;;;14.32;6.85;;;20.40;60.40;;;;;;5070465;28;20049;-73
2023/04/16 09:08:46;;;;;;;17.27;6.72;;;20.40;60.50;;;;;;5073733;28;20364;-73
2023/04/16 09:11:18;;;;;;;15.93;7.65;;;20.40;60.50;;;;;;5090091;28;20119;-74
2023/04/16 09:13:44;;;;;;;15.88;7.32;;;20.40;60.60;;;;;;5087332;28;20110;-73
2023/04/16 09:16:10;;;;;;;12.32;6.43;;;20.50;60.60;;;;;;5073147;28;20093;-74
2023/04/16 09:18:35;;;;;;;13.80;7.32;;;20.50;60.90;;;;;;5090178;28;20036;-73
2023/04/16 09:21:01;;;;;;;13.20;6.47;;;20.50;60.70;;;;;;5089406;28;20170;-73
2023/04/16 09:23:28;;;;;;;16.63;7.13;;;20.50;60.80;;;;;;5089939;28;20115;-73
2023/04/16 09:25:54;;;;;;;13.23;6.93;;;20.50;60.70;;;;;;5056266;28;20032;-67
2023/04/16 09:28:42;;;;;;;16.60;6.90;;;20.50;60.80;;;;;;5074990;28;20430;-70
2023/04/16 09:31:11;;;;;;;17.65;7.07;;;20.50;60.90;;;;;;5092399;28;20036;-71
2023/04/16 09:33:37;;;;;;;12.63;6.43;;;20.50;60.90;;;;;;5093443;28;20399;-74
2023/04/16 09:36:03;;;;;;;16.55;6.53;;;20.50;60.90;;;;;;5095664;28;20036;-72
2023/04/16 09:38:47;;;;;;;15.80;6.57;;;20.50;60.80;;;;;;5093652;28;20145;-71
2023/04/16 09:41:15;;;;;;;16.05;6.25;;;20.50;60.70;;;;;;5094270;28;20040;-73
2023/04/16 09:43:41;;;;;;;15.60;7.57;;;20.50;60.70;;;;;;5093437;28;20036;-74
2023/04/16 09:46:07;;;;;;;15.35;6.78;;;20.50;60.70;;;;;;5077050;28;20445;-72
2023/04/16 09:48:33;;;;;;;14.15;6.95;;;20.50;60.80;;;;;;5093050;28;20040;-74
2023/04/16 09:50:59;;;;;;;13.85;6.55;;;20.50;60.80;;;;;;5095265;28;20044;-73
2023/04/16 09:53:25;;;;;;;19.55;6.90;;;20.50;60.80;;;;;;5094132;28;20035;-74
2023/04/16 09:55:52;;;;;;;13.23;6.15;;;20.50;60.90;;;;;;5094134;28;20399;-76
2023/04/16 09:58:18;;;;;;;11.98;6.15;;;20.50;60.90;;;;;;5093913;28;20047;-71
2023/04/16 10:00:43;;;;;;;14.93;6.88;;;20.50;60.90;;;;;;5094971;28;20068;-71
2023/04/16 10:03:09;;;;;;;15.32;6.45;;;20.50;60.90;;;;;;5092272;28;20074;-73
2023/04/16 10:05:35;;;;;;;13.07;6.03;;;20.50;60.90;;;;;;5094792;28;20032;-73
2023/04/16 10:08:01;;;;;;;14.45;6.75;;;20.50;61.00;;;;;;5093889;28;20108;-75
2023/04/16 10:10:27;;;;;;;10.95;5.90;;;20.50;61.00;;;;;;5094358;28;20051;-75
2023/04/16 10:12:54;;;;;;;13.23;6.18;;;20.50;61.00;;;;;;5094421;28;20060;-76
2023/04/16 10:15:19;;;;;;;13.20;6.43;;;20.50;61.10;;;;;;5090390;28;20044;-76
2023/04/16 10:17:45;;;;;;;13.70;6.70;;;20.50;61.10;;;;;;5094602;28;20360;-76
2023/04/16 10:20:10;;;;;;;12.23;5.85;;;20.60;61.10;;;;;;5076120;28;20039;-75
2023/04/16 10:22:36;;;;;;;11.93;5.32;;;20.60;61.10;;;;;;5078772;28;20048;-75
2023/04/16 10:25:02;;;;;;;14.93;6.95;;;20.60;61.00;;;;;;5114819;28;20495;-75
2023/04/16 10:27:27;;;;;;;11.40;6.07;;;20.60;61.10;;;;;;5113530;28;20044;-76
2023/04/16 10:29:53;;;;;;;13.18;6.13;;;20.60;61.10;;;;;;5112940;28;20059;-76
2023/04/16 10:32:20;;;;;;;12.98;6.25;;;20.60;61.10;;;;;;5113233;28;20517;-75
2023/04/16 10:34:46;;;;;;;12.90;6.55;;;20.60;61.00;;;;;;5076092;28;20069;-74
2023/04/16 10:37:11;;;;;;;12.75;6.22;;;20.60;61.10;;;;;;5075331;28;20124;-76
2023/04/16 10:39:37;;;;;;;11.68;6.63;;;20.60;61.10;;;;;;5093998;28;20043;-75
2023/04/16 10:42:10;;;;;;;13.23;7.07;;;20.60;60.90;;;;;;5092787;28;20044;-76
2023/04/16 10:44:36;;;;;;;13.32;6.95;;;20.60;61.10;;;;;;5093815;28;20094;-72
2023/04/16 10:47:01;;;;;;;14.68;7.35;;;20.60;60.30;;;;;;5092926;28;20125;-69
2023/04/16 10:49:27;;;;;;;14.00;7.18;;;20.60;60.20;;;;;;5094318;28;20043;-74
2023/04/16 10:51:54;;;;;;;13.65;6.63;;;20.60;60.20;;;;;;5074527;28;20591;-74
2023/04/16 10:54:24;;;;;;;12.13;6.90;;;20.60;60.10;;;;;;5094121;28;20483;-74
2023/04/16 10:56:50;;;;;;;13.82;6.45;;;20.60;60.00;;;;;;5094448;28;20055;-74
2023/04/16 10:59:20;;;;;;;12.30;6.55;;;20.60;60.00;;;;;;5105917;28;20048;-74
2023/04/16 11:01:47;;;;;;;10.55;6.07;;;20.60;60.00;;;;;;5114771;28;20161;-74
2023/04/16 11:04:18;;;;;;;10.68;6.30;;;20.60;60.00;;;;;;5112992;28;20590;-75
2023/04/16 11:07:17;;;;;;;9.93;5.72;;;20.60;60.00;;;;;;5114401;28;20069;-74
2023/04/16 11:09:46;;;;;;;11.85;6.03;;;20.60;60.00;;;;;;5114304;28;20513;-74
2023/04/16 11:12:34;;;;;;;10.68;5.85;;;20.60;60.00;;;;;;5112290;28;20058;-74
2023/04/16 11:15:04;;;;;;;11.18;6.25;;;20.60;60.00;;;;;;5112825;28;20100;-74
2023/04/16 11:17:41;;;;;;;8.50;6.07;;;20.60;60.00;;;;;;5112784;28;20040;-74
2023/04/16 11:20:09;;;;;;;10.15;5.93;;;20.60;60.00;;;;;;5112966;28;20040;-74
2023/04/16 11:22:35;;;;;;;8.43;5.80;;;20.50;59.90;;;;;;5113993;28;20056;-74
2023/04/16 11:25:01;;;;;;;11.13;6.18;;;20.50;59.90;;;;;;5113296;28;20350;-74
2023/04/16 11:27:26;;;;;;;10.50;5.88;;;20.60;59.90;;;;;;5113231;28;20039;-74
2023/04/16 11:30:03;;;;;;;10.82;6.00;;;20.60;59.90;;;;;;5094668;28;20076;-74
2023/04/16 11:32:31;;;;;;;10.10;5.85;;;20.50;59.90;;;;;;5093235;28;20104;-74
2023/04/16 11:34:56;;;;;;;10.77;5.63;;;20.60;59.90;;;;;;5093226;28;20051;-74
2023/04/16 11:37:36;;;;;;;9.77;5.38;;;20.60;59.90;;;;;;5092484;28;20518;-74
2023/04/16 11:40:05;;;;;;;9.93;5.90;;;20.60;59.90;;;;;;5092172;28;20044;-74
2023/04/16 11:42:30;;;;;;;9.32;5.53;;;20.60;59.90;;;;;;5092326;28;20075;-74
2023/04/16 11:44:59;;;;;;;8.85;5.97;;;20.60;59.80;;;;;;5110188;28;20075;-74
2023/04/16 11:47:25;;;;;;;10.38;5.40;;;20.60;59.80;;;;;;5112911;28;20122;-74
2023/04/16 11:49:51;;;;;;;7.68;5.50;;;20.60;59.80;;;;;;5113200;28;20043;-74
2023/04/16 11:52:30;;;;;;;10.23;5.20;;;20.60;59.80;;;;;;5112520;28;20049;-74
2023/04/16 11:54:56;;;;;;;13.38;5.40;;;20.60;59.80;;;;;;5112067;28;20558;-74
2023/04/16 11:57:29;;;;;;;8.82;5.55;;;20.50;59.80;;;;;;5112045;28;20036;-74
2023/04/16 11:59:56;;;;;;;9.90;5.68;;;20.50;59.70;;;;;;5111352;28;20040;-74
2023/04/16 12:02:34;;;;;;;7.93;5.28;;;20.60;59.80;;;;;;5111352;28;20087;-73
2023/04/16 12:04:59;;;;;;;8.82;5.43;;;20.60;59.70;;;;;;5113106;28;20039;-74
2023/04/16 12:07:26;;;;;;;8.32;5.40;;;20.50;59.70;;;;;;5111757;28;20062;-74
2023/04/16 12:10:03;;;;;;;6.75;5.00;;;20.60;59.80;;;;;;5112260;28;20126;-74
2023/04/16 12:12:30;;;;;;;7.97;5.07;;;20.50;59.80;;;;;;5096727;28;20048;-74
2023/04/16 12:14:56;;;;;;;8.60;5.60;;;20.50;59.70;;;;;;5111756;28;20039;-74
2023/04/16 12:17:21;;;;;;;9.75;5.40;;;20.60;59.70;;;;;;5111872;28;20047;-74
2023/04/16 12:19:55;;;;;;;8.32;5.57;;;20.50;59.60;;;;;;5111743;28;20036;-74
2023/04/16 12:22:27;;;;;;;7.20;5.22;;;20.60;59.70;;;;;;5112433;28;20055;-74
2023/04/16 12:25:03;;;;;;;8.45;5.20;;;20.50;60.20;;;;;;5112945;28;20048;-74
2023/04/16 12:27:51;;;;;;;9.55;5.50;;;20.50;59.60;;;;;;5111792;28;20067;-74
2023/04/16 12:30:18;;;;;;;8.88;5.45;;;20.50;59.60;;;;;;5111785;28;20071;-73
2023/04/16 12:32:45;;;;;;;7.40;4.93;;;20.50;59.60;;;;;;5113206;28;20039;-74
2023/04/16 12:35:11;;;;;;;9.18;5.00;;;20.50;59.60;;;;;;5112279;28;20043;-73
2023/04/16 12:37:37;;;;;;;7.18;4.90;;;20.50;59.70;;;;;;5112381;28;20394;-73
2023/04/16 12:40:06;;;;;;;7.03;4.75;;;20.50;59.70;;;;;;5112233;28;20036;-73
2023/04/16 12:42:34;;;;;;;7.40;4.78;;;20.50;59.60;;;;;;5112891;28;20471;-73